ブリスベン の空港の天気 - METARとTAF

ブリスベン空港 ( YBBN / BNE ) - オーストラリア クイーンズランド州ブリスベン
飛行場実況気象(Metar)
観測時間10/16 16:30 AEST (10/16 06:30 UTC)
風向・風速東 4m/s
視程10km以上
天気現象周辺でしゅう雨
少しの雲 雲底高度 520m
全天の4割程度の雲 雲底高度 610m
気温23℃
湿度78%
気圧1016hPa
METARYBBN 160630Z 10007KT 9999 VCSH FEW017 SCT020 23/19 Q1016 NOSIG
過去の天気等 Google飛行場航空写真 Wunderground天気予報

過去48時間のMETAR

飛行場予報(TAF)
発表時間: 10/16 15:51 AEST (10/16 05:51 UTC)
予報対象時間: 16日16時 AEST ~ 17日22時 AEST
風向・風速東北東 7m/s
視程10km以上
天気現象弱いしゅう雨
少しの雲 雲底高度 460m
全天の4割程度の雲 雲底高度 760m
16日18時 AEST から
風向・風速東南東 5m/s
視程10km以上
天気現象弱いしゅう雨
少しの雲 雲底高度 460m
全天の4割程度の雲 雲底高度 760m
16日20時 AEST から
風向・風速南 4m/s
視程10km以上
天気現象弱いしゅう雨
全天の4割程度の雲 雲底高度 460m
全天の4割程度の雲 雲底高度 760m
17日9時 AEST から
風向・風速東 6m/s
視程10km以上
全天の4割程度の雲 雲底高度 760m
全天の4割程度の雲 雲底高度 1220m
17日20時 AEST から
風向・風速東南東 4m/s
視程10km以上
全天の4割程度の雲 雲底高度 610m
全天の4割程度の雲 雲底高度 1220m
TAF COR YBBN 160551Z 1606/1712 07014KT 9999 -SHRA FEW015 SCT025
FM160800 12010KT 9999 -SHRA FEW015 SCT025
FM161000 18007KT 9999 -SHRA SCT015 SCT025
FM162300 09012KT 9999 SCT025 SCT040
FM171000 12008KT 9999 SCT020 SCT040 INTER 1610/1624 3000 SHRA BKN012